createdAt,value
2022-10-04T00:00:33.906Z,5.02
2022-10-04T00:03:34.853Z,4.73
2022-10-04T00:06:27.845Z,5.15
2022-10-04T00:09:20.932Z,5.29
2022-10-04T00:12:13.665Z,5.29
2022-10-04T00:15:08.725Z,5.14
2022-10-04T00:18:01.858Z,5.30
2022-10-04T00:21:13.933Z,5.23
2022-10-04T00:24:09.031Z,5.04
2022-10-04T00:27:01.991Z,4.69
2022-10-04T00:29:56.950Z,4.98
2022-10-04T00:32:51.050Z,4.69
2022-10-04T00:35:49.621Z,4.81
2022-10-04T00:38:51.129Z,4.98
2022-10-04T00:41:46.660Z,4.89
2022-10-04T00:44:33.509Z,5.20
2022-10-04T00:47:04.037Z,5.22
2022-10-04T00:49:41.700Z,5.42
2022-10-04T00:52:21.181Z,5.30
2022-10-04T00:54:53.939Z,5.41
2022-10-04T00:57:27.984Z,5.30
2022-10-04T01:00:05.039Z,5.62
2022-10-04T01:02:53.006Z,5.87
2022-10-04T01:05:27.328Z,5.84
2022-10-04T01:07:58.521Z,5.89
2022-10-04T01:10:26.234Z,5.56
2022-10-04T01:13:05.975Z,5.81
2022-10-04T01:15:44.047Z,5.99
2022-10-04T01:18:20.743Z,5.70
2022-10-04T01:20:48.361Z,5.88
2022-10-04T01:23:31.376Z,5.62
2022-10-04T01:25:59.425Z,5.46
2022-10-04T01:28:27.481Z,6.17
2022-10-04T01:30:55.623Z,5.82
2022-10-04T01:33:23.288Z,5.40
2022-10-04T01:35:51.060Z,5.21
2022-10-04T01:38:18.840Z,5.67
2022-10-04T01:40:55.557Z,5.64
2022-10-04T01:43:29.056Z,5.30
2022-10-04T01:46:02.499Z,5.27
2022-10-04T01:48:36.159Z,5.22
2022-10-04T01:51:26.029Z,5.50
2022-10-04T01:53:58.202Z,5.68
2022-10-04T01:56:38.013Z,5.58
2022-10-04T01:59:13.009Z,5.17
2022-10-04T02:01:51.716Z,5.26
2022-10-04T02:04:22.633Z,5.05
2022-10-04T02:06:54.300Z,5.40
2022-10-04T02:09:32.696Z,5.42
2022-10-04T02:12:01.707Z,5.18
2022-10-04T02:14:33.281Z,5.39
2022-10-04T02:17:04.127Z,5.26
2022-10-04T02:19:38.561Z,5.38
2022-10-04T02:22:09.218Z,5.27
2022-10-04T02:24:44.385Z,5.58
2022-10-04T02:27:13.020Z,5.60
2022-10-04T02:29:41.091Z,5.78
2022-10-04T02:32:28.902Z,6.17
2022-10-04T02:34:57.605Z,5.91
2022-10-04T02:37:27.752Z,6.15
2022-10-04T02:40:17.429Z,6.04
2022-10-04T02:42:44.950Z,6.03
2022-10-04T02:45:12.568Z,6.27
2022-10-04T02:47:46.563Z,6.14
2022-10-04T02:50:23.848Z,6.56
2022-10-04T02:52:58.584Z,6.76
2022-10-04T02:55:36.050Z,6.88
2022-10-04T02:58:10.568Z,6.83
2022-10-04T03:00:46.871Z,6.70
2022-10-04T03:03:16.570Z,6.73
2022-10-04T03:05:47.799Z,6.74
2022-10-04T03:08:15.408Z,6.92
2022-10-04T03:10:43.773Z,7.09
2022-10-04T03:13:14.037Z,7.54
2022-10-04T03:15:43.303Z,7.37
2022-10-04T03:18:11.110Z,7.41
2022-10-04T03:20:40.936Z,7.68
2022-10-04T03:23:10.801Z,7.41
2022-10-04T03:25:47.038Z,7.25
2022-10-04T03:28:14.798Z,7.23
2022-10-04T03:30:47.516Z,7.46
2022-10-04T03:33:17.131Z,7.26
2022-10-04T03:35:48.081Z,7.46
2022-10-04T03:38:17.921Z,7.41
2022-10-04T03:40:57.175Z,7.47
2022-10-04T03:43:31.473Z,7.58
2022-10-04T03:46:01.184Z,7.27
2022-10-04T03:48:40.147Z,7.39
2022-10-04T03:51:12.855Z,7.64
2022-10-04T03:53:44.431Z,7.53
2022-10-04T03:56:32.179Z,6.87
2022-10-04T03:59:03.101Z,7.38
2022-10-04T04:01:33.484Z,7.39
2022-10-04T04:04:15.479Z,7.31
2022-10-04T04:07:00.288Z,7.45
2022-10-04T04:09:48.117Z,7.47
2022-10-04T04:12:25.901Z,7.97
2022-10-04T04:14:54.520Z,7.83
2022-10-04T04:17:41.275Z,10.08
2022-10-04T04:20:31.574Z,9.21
2022-10-04T04:23:05.922Z,7.56
2022-10-04T04:25:38.232Z,7.27
2022-10-04T04:28:14.645Z,7.96
2022-10-04T04:30:48.989Z,7.62
2022-10-04T04:33:36.822Z,7.32
2022-10-04T04:36:11.231Z,7.82
2022-10-04T04:38:57.526Z,8.00
2022-10-04T04:41:35.640Z,8.29
2022-10-04T04:44:04.274Z,8.33
2022-10-04T04:46:32.168Z,7.94
2022-10-04T04:49:03.919Z,8.42
2022-10-04T04:51:33.490Z,8.66
2022-10-04T04:54:06.114Z,8.36
2022-10-04T04:56:35.178Z,8.03
2022-10-04T04:59:07.466Z,8.34
2022-10-04T05:01:36.662Z,8.58
2022-10-04T05:04:06.489Z,8.93
2022-10-04T05:06:35.375Z,9.00
2022-10-04T05:09:04.424Z,8.85
2022-10-04T05:11:35.504Z,9.13
2022-10-04T05:14:03.035Z,9.01
2022-10-04T05:16:36.686Z,8.79
2022-10-04T05:19:08.922Z,8.85
2022-10-04T05:21:39.711Z,8.71
2022-10-04T05:24:33.470Z,8.84
2022-10-04T05:27:04.360Z,8.89
2022-10-04T05:29:36.063Z,9.21
2022-10-04T05:32:06.748Z,9.08
2022-10-04T05:34:42.010Z,8.79
2022-10-04T05:37:12.376Z,8.51
2022-10-04T05:39:39.961Z,8.90
2022-10-04T05:42:10.294Z,8.45
2022-10-04T05:44:51.978Z,8.83
2022-10-04T05:47:24.176Z,9.23
2022-10-04T05:49:55.584Z,9.40
2022-10-04T05:52:37.125Z,10.47
2022-10-04T05:55:16.896Z,10.25
2022-10-04T05:57:56.654Z,10.46
2022-10-04T06:00:51.967Z,9.42
2022-10-04T06:03:50.044Z,10.30
2022-10-04T06:06:27.453Z,9.57
2022-10-04T06:08:57.925Z,10.02
2022-10-04T06:11:44.350Z,10.27
2022-10-04T06:14:18.442Z,10.94
2022-10-04T06:17:04.678Z,10.85
2022-10-04T06:19:44.239Z,10.25
2022-10-04T06:22:22.748Z,9.81
2022-10-04T06:24:55.424Z,9.92
2022-10-04T06:27:25.682Z,9.81
2022-10-04T06:30:01.249Z,9.82
2022-10-04T06:32:46.679Z,9.34
2022-10-04T06:35:23.089Z,9.92
2022-10-04T06:37:56.401Z,10.24
2022-10-04T06:40:28.099Z,10.29
2022-10-04T06:43:14.328Z,9.87
2022-10-04T06:46:06.992Z,10.07
2022-10-04T06:48:44.967Z,9.42
2022-10-04T06:51:15.638Z,9.58
2022-10-04T06:54:03.618Z,9.86
2022-10-04T06:57:08.823Z,8.79
2022-10-04T06:59:56.669Z,8.94
2022-10-04T07:02:29.380Z,9.31
2022-10-04T07:05:09.834Z,8.90
2022-10-04T07:07:42.181Z,9.07
2022-10-04T07:10:09.682Z,8.25
2022-10-04T07:12:41.966Z,8.10
2022-10-04T07:15:18.688Z,8.29
2022-10-04T07:17:49.594Z,8.43
2022-10-04T07:20:21.936Z,8.32
2022-10-04T07:22:59.997Z,8.29
2022-10-04T07:25:34.365Z,8.45
2022-10-04T07:28:34.416Z,8.41
2022-10-04T07:31:13.037Z,8.18
2022-10-04T07:33:46.550Z,7.86
2022-10-04T07:36:21.829Z,7.86
2022-10-04T07:39:02.407Z,8.62
2022-10-04T07:41:35.202Z,7.82
2022-10-04T07:44:12.424Z,7.84
2022-10-04T07:46:43.005Z,9.90
2022-10-04T07:49:14.640Z,10.14
2022-10-04T07:51:45.399Z,9.07
2022-10-04T07:54:21.645Z,8.31
2022-10-04T07:56:58.268Z,8.24
2022-10-04T07:59:43.931Z,7.42
2022-10-04T08:02:17.653Z,7.73
2022-10-04T08:04:59.000Z,7.72
2022-10-04T08:07:33.680Z,8.01
2022-10-04T08:10:20.597Z,7.95
2022-10-04T08:12:54.244Z,7.50
2022-10-04T08:15:33.204Z,7.48
2022-10-04T08:18:00.848Z,6.74
2022-10-04T08:20:38.981Z,7.31
2022-10-04T08:23:12.678Z,7.03
2022-10-04T08:25:40.237Z,6.73
2022-10-04T08:28:29.510Z,7.23
2022-10-04T08:31:15.922Z,7.01
2022-10-04T08:34:02.435Z,6.40
2022-10-04T08:36:30.029Z,6.51
2022-10-04T08:38:59.579Z,6.23
2022-10-04T08:41:36.297Z,6.53
2022-10-04T08:44:23.354Z,6.49
2022-10-04T08:47:13.001Z,6.25
2022-10-04T08:49:46.902Z,6.53
2022-10-04T08:52:20.589Z,6.54
2022-10-04T08:55:11.908Z,7.11
2022-10-04T08:57:52.912Z,6.46
2022-10-04T09:00:49.889Z,6.61
2022-10-04T09:03:36.926Z,6.19
2022-10-04T09:06:07.699Z,5.99
2022-10-04T09:08:35.929Z,6.04
2022-10-04T09:11:05.148Z,5.90
2022-10-04T09:13:47.832Z,6.32
2022-10-04T09:16:16.128Z,7.70
2022-10-04T09:19:02.420Z,5.44
2022-10-04T09:21:42.426Z,5.39
2022-10-04T09:24:28.840Z,4.92
2022-10-04T09:27:07.538Z,5.23
2022-10-04T09:29:53.772Z,4.36
2022-10-04T09:32:39.381Z,4.58
2022-10-04T09:35:07.239Z,4.40
2022-10-04T09:37:42.698Z,4.49
2022-10-04T09:40:22.505Z,5.01
2022-10-04T09:43:05.590Z,4.35
2022-10-04T09:45:42.383Z,4.23
2022-10-04T09:48:30.117Z,4.41
2022-10-04T09:51:13.283Z,4.36
2022-10-04T09:53:49.367Z,4.23
2022-10-04T09:56:19.889Z,4.47
2022-10-04T09:58:58.779Z,3.99
2022-10-04T10:01:29.619Z,4.11
2022-10-04T10:04:19.438Z,10.64
2022-10-04T10:07:17.798Z,6.31
2022-10-04T10:10:22.668Z,4.27
2022-10-04T10:13:12.092Z,3.99
2022-10-04T10:16:05.085Z,3.36
2022-10-04T10:18:52.102Z,3.29
2022-10-04T10:21:22.812Z,3.26
2022-10-04T10:23:50.409Z,3.01
2022-10-04T10:26:25.058Z,2.91
2022-10-04T10:29:13.109Z,2.90
2022-10-04T10:31:59.602Z,2.50
2022-10-04T10:34:27.345Z,2.89
2022-10-04T10:37:07.294Z,2.67
2022-10-04T10:39:57.931Z,2.62
2022-10-04T10:42:45.970Z,2.59
2022-10-04T10:45:33.795Z,2.69
2022-10-04T10:48:31.336Z,2.81
2022-10-04T10:51:03.568Z,2.75
2022-10-04T10:53:48.137Z,3.20
2022-10-04T10:56:34.564Z,2.42
2022-10-04T10:59:05.775Z,2.66
2022-10-04T11:01:52.335Z,2.37
2022-10-04T11:04:19.926Z,2.61
2022-10-04T11:06:53.956Z,2.67
2022-10-04T11:09:36.925Z,2.85
2022-10-04T11:12:23.570Z,2.64
2022-10-04T11:15:00.316Z,2.90
2022-10-04T11:17:40.826Z,2.84
2022-10-04T11:20:32.935Z,2.22
2022-10-04T11:23:13.033Z,2.24
2022-10-04T11:25:52.359Z,2.01
2022-10-04T11:28:25.926Z,2.26
2022-10-04T11:30:54.420Z,2.06
2022-10-04T11:33:40.608Z,1.92
2022-10-04T11:36:27.101Z,2.12
2022-10-04T11:39:13.152Z,1.71
2022-10-04T11:41:40.614Z,2.22
2022-10-04T11:44:15.872Z,2.74
2022-10-04T11:47:02.383Z,2.82
2022-10-04T11:49:42.152Z,2.45
2022-10-04T11:52:28.337Z,2.23
2022-10-04T11:54:55.940Z,2.24
2022-10-04T11:57:31.673Z,2.14
2022-10-04T12:00:02.645Z,2.09
2022-10-04T12:02:56.721Z,2.02
2022-10-04T12:05:43.081Z,1.99
2022-10-04T12:08:16.743Z,1.65
2022-10-04T12:11:00.361Z,1.66
2022-10-04T12:13:31.352Z,1.75
2022-10-04T12:16:08.825Z,1.43
2022-10-04T12:19:03.488Z,1.57
2022-10-04T12:21:31.021Z,1.59
2022-10-04T12:24:17.135Z,1.42
2022-10-04T12:26:51.254Z,1.77
2022-10-04T12:29:28.797Z,1.42
2022-10-04T12:31:56.422Z,1.59
2022-10-04T12:34:33.319Z,1.58
2022-10-04T12:37:03.828Z,1.76
2022-10-04T12:39:42.780Z,1.97
2022-10-04T12:42:16.326Z,1.83
2022-10-04T12:44:49.838Z,1.65
2022-10-04T12:47:44.740Z,1.68
2022-10-04T12:50:31.860Z,1.41
2022-10-04T12:52:59.428Z,1.43
2022-10-04T12:55:45.845Z,1.81
2022-10-04T12:58:22.436Z,1.69
2022-10-04T13:00:53.647Z,1.41
2022-10-04T13:03:24.222Z,1.64
2022-10-04T13:06:02.926Z,1.46
2022-10-04T13:08:59.793Z,1.66
2022-10-04T13:11:42.727Z,1.42
2022-10-04T13:14:29.081Z,1.36
2022-10-04T13:17:27.511Z,1.32
2022-10-04T13:20:02.342Z,1.28
2022-10-04T13:22:55.340Z,1.32
2022-10-04T13:25:38.577Z,1.21
2022-10-04T13:28:20.490Z,1.44
2022-10-04T13:31:02.350Z,1.39
2022-10-04T13:33:40.485Z,1.23
2022-10-04T13:36:11.207Z,1.10
2022-10-04T13:38:41.437Z,1.33
2022-10-04T13:41:28.249Z,1.38
2022-10-04T13:44:15.340Z,1.41
2022-10-04T13:46:52.384Z,4.28
2022-10-04T13:49:37.352Z,6.40
2022-10-04T13:52:36.153Z,9.60
2022-10-04T13:55:31.419Z,4.81
2022-10-04T13:58:15.378Z,3.34
2022-10-04T14:00:49.122Z,2.14
2022-10-04T14:03:20.316Z,2.09
2022-10-04T14:06:08.381Z,1.49
2022-10-04T14:09:02.240Z,1.28
2022-10-04T14:11:45.571Z,1.51
2022-10-04T14:14:17.455Z,1.60
2022-10-04T14:16:51.256Z,1.44
2022-10-04T14:19:34.894Z,1.65
2022-10-04T14:22:02.418Z,1.71
2022-10-04T14:24:33.352Z,1.41
2022-10-04T14:27:24.381Z,1.29
2022-10-04T14:29:58.228Z,3.57
2022-10-04T14:32:54.814Z,6.33
2022-10-04T14:35:27.457Z,3.97
2022-10-04T14:37:57.991Z,2.24
2022-10-04T14:40:26.106Z,2.11
2022-10-04T14:42:53.589Z,1.99
2022-10-04T14:45:39.964Z,1.73
2022-10-04T14:48:07.639Z,1.47
2022-10-04T14:50:41.321Z,1.49
2022-10-04T14:53:21.076Z,1.40
2022-10-04T14:55:52.129Z,1.59
2022-10-04T14:58:34.687Z,1.69
2022-10-04T15:01:18.673Z,1.30
2022-10-04T15:03:52.637Z,1.47
2022-10-04T15:06:29.450Z,1.45
2022-10-04T15:08:56.992Z,1.28
2022-10-04T15:11:34.263Z,1.34
2022-10-04T15:14:04.746Z,1.51
2022-10-04T15:16:48.156Z,1.52
2022-10-04T15:19:22.287Z,1.84
2022-10-04T15:22:00.737Z,2.09
2022-10-04T15:24:30.814Z,2.25
2022-10-04T15:27:16.646Z,2.51
2022-10-04T15:29:57.974Z,14.93
2022-10-04T15:32:35.419Z,18.95
2022-10-04T15:35:15.679Z,2.27
2022-10-04T15:37:54.520Z,2.11
2022-10-04T15:40:38.322Z,7.31
2022-10-04T15:43:28.162Z,13.22
2022-10-04T15:46:00.718Z,6.82
2022-10-04T15:48:39.484Z,3.35
2022-10-04T15:51:17.501Z,5.34
2022-10-04T15:53:48.075Z,9.42
2022-10-04T15:56:27.581Z,10.29
2022-10-04T15:59:15.472Z,10.17
2022-10-04T16:01:46.260Z,2.98
2022-10-04T16:04:33.352Z,11.50
2022-10-04T16:07:19.740Z,20.18
2022-10-04T17:49:49.945Z,5.72
2022-10-04T17:52:52.755Z,5.88
2022-10-04T17:55:54.421Z,5.79
2022-10-04T17:58:56.681Z,5.73
2022-10-04T18:02:03.829Z,5.96
2022-10-04T18:08:57.353Z,6.72
2022-10-04T18:11:43.680Z,6.31
2022-10-04T18:14:14.272Z,6.85
2022-10-04T18:17:05.077Z,7.62
2022-10-04T18:19:38.939Z,8.35
2022-10-04T18:22:09.601Z,7.37
2022-10-04T18:24:37.302Z,6.60
2022-10-04T18:27:24.699Z,6.22
2022-10-04T18:30:01.503Z,5.91
2022-10-04T18:32:29.025Z,5.85
2022-10-04T18:34:59.272Z,5.66
2022-10-04T18:37:34.752Z,6.34
2022-10-04T18:40:21.454Z,6.74
2022-10-04T18:43:01.950Z,6.99
2022-10-04T18:45:31.617Z,6.85
2022-10-04T18:48:13.775Z,6.28
2022-10-04T18:50:47.323Z,6.69
2022-10-04T18:53:19.657Z,5.95
2022-10-04T18:55:57.436Z,6.50
2022-10-04T18:58:55.918Z,6.55
2022-10-04T19:02:00.746Z,6.23
2022-10-04T19:04:31.903Z,10.42
2022-10-04T19:07:08.401Z,18.74
2022-10-04T19:09:42.372Z,11.58
2022-10-04T19:12:17.938Z,8.99
2022-10-04T19:14:51.667Z,8.73
2022-10-04T19:17:19.220Z,9.28
2022-10-04T19:19:58.864Z,16.29
2022-10-04T19:22:26.757Z,9.54
2022-10-04T19:24:58.012Z,7.44
2022-10-04T19:27:30.584Z,7.45
2022-10-04T19:30:10.777Z,6.08
2022-10-04T19:32:57.610Z,6.19
2022-10-04T19:35:40.760Z,6.02
2022-10-04T19:38:31.647Z,5.63
2022-10-04T19:41:09.752Z,5.46
2022-10-04T19:44:00.740Z,4.91
2022-10-04T19:46:30.820Z,4.64
2022-10-04T19:48:58.502Z,4.35
2022-10-04T19:51:26.217Z,4.40
2022-10-04T19:53:59.597Z,4.72
2022-10-04T19:56:32.665Z,4.70
2022-10-04T19:59:10.568Z,4.82
2022-10-04T20:01:38.823Z,5.19
2022-10-04T20:04:32.451Z,5.80
2022-10-04T20:07:01.272Z,5.67
2022-10-04T20:09:37.623Z,5.43
2022-10-04T20:12:05.523Z,5.35
2022-10-04T20:14:33.281Z,6.21
2022-10-04T20:17:00.941Z,6.38
2022-10-04T20:19:28.553Z,6.86
2022-10-04T20:21:56.131Z,6.86
2022-10-04T20:24:36.128Z,7.33
2022-10-04T20:27:27.124Z,7.97
2022-10-04T20:29:56.124Z,8.11
2022-10-04T20:32:26.427Z,7.43
2022-10-04T20:34:55.383Z,8.17
2022-10-04T20:37:42.934Z,8.14
2022-10-04T20:40:11.599Z,8.08
2022-10-04T20:42:39.241Z,8.69
2022-10-04T20:45:09.571Z,8.25
2022-10-04T20:47:39.768Z,8.04
2022-10-04T20:50:14.440Z,7.58
2022-10-04T20:52:53.843Z,7.63
2022-10-04T20:55:27.340Z,7.03
2022-10-04T20:57:56.677Z,7.12
2022-10-04T21:00:25.885Z,7.33
2022-10-04T21:03:10.134Z,6.87
2022-10-04T21:05:37.928Z,7.01
2022-10-04T21:08:12.857Z,7.58
2022-10-04T21:11:01.401Z,7.49
2022-10-04T21:13:42.410Z,8.04
2022-10-04T21:16:10.870Z,11.09
2022-10-04T21:18:38.540Z,9.20
2022-10-04T21:21:06.221Z,7.45
2022-10-04T21:23:34.854Z,6.68
2022-10-04T21:26:21.423Z,5.99
2022-10-04T21:28:53.303Z,6.29
2022-10-04T21:31:20.900Z,6.20
2022-10-04T21:33:49.169Z,6.07
2022-10-04T21:36:16.821Z,6.19
2022-10-04T21:38:45.250Z,6.15
2022-10-04T21:41:13.851Z,5.94
2022-10-04T21:43:41.419Z,5.72
2022-10-04T21:46:09.069Z,6.07
2022-10-04T21:48:36.668Z,5.73
2022-10-04T21:51:05.329Z,5.92
2022-10-04T21:53:33.048Z,6.04
2022-10-04T21:56:00.596Z,6.89
2022-10-04T21:58:28.126Z,8.25
2022-10-04T22:00:55.882Z,8.33
2022-10-04T22:03:23.533Z,8.39
2022-10-04T22:05:51.152Z,9.00
2022-10-04T22:08:19.145Z,10.19
2022-10-04T22:10:47.313Z,8.75
2022-10-04T22:13:15.066Z,7.56
2022-10-04T22:15:42.854Z,6.52
2022-10-04T22:18:10.710Z,6.70
2022-10-04T22:20:38.399Z,7.03
2022-10-04T22:23:11.152Z,6.81
2022-10-04T22:25:40.081Z,6.45
2022-10-04T22:28:34.109Z,6.45
2022-10-04T22:31:01.745Z,7.36
2022-10-04T22:33:29.357Z,7.45
2022-10-04T22:36:10.298Z,7.29
2022-10-04T22:38:38.095Z,7.64
2022-10-04T22:41:09.618Z,8.10
2022-10-04T22:43:37.173Z,7.94
2022-10-04T22:46:04.910Z,8.21
2022-10-04T22:48:32.644Z,8.21
2022-10-04T22:51:00.396Z,8.44
2022-10-04T22:53:28.828Z,7.81
2022-10-04T22:55:57.985Z,7.66
2022-10-04T22:58:26.865Z,7.20
2022-10-04T23:00:55.012Z,6.93
2022-10-04T23:03:24.090Z,6.80
2022-10-04T23:05:51.742Z,6.97
2022-10-04T23:08:19.259Z,7.10
2022-10-04T23:10:47.325Z,7.08
2022-10-04T23:13:14.888Z,6.97
2022-10-04T23:15:42.471Z,6.99
2022-10-04T23:18:18.027Z,6.87
2022-10-04T23:20:54.586Z,6.83
2022-10-04T23:23:22.325Z,6.71
2022-10-04T23:25:50.732Z,7.00
2022-10-04T23:28:20.056Z,7.25
2022-10-04T23:31:00.711Z,7.30
2022-10-04T23:33:28.241Z,6.85
2022-10-04T23:35:56.929Z,6.85
2022-10-04T23:38:25.266Z,7.05
2022-10-04T23:40:53.957Z,6.64
2022-10-04T23:43:25.021Z,7.19
2022-10-04T23:45:54.179Z,6.86
2022-10-04T23:48:24.146Z,6.60
2022-10-04T23:50:53.161Z,6.78
2022-10-04T23:53:27.088Z,7.07
2022-10-04T23:55:58.045Z,6.72
2022-10-04T23:58:30.150Z,5.81
